Time;durP1;ratioP1;P1;durP2;ratioP2;P2;SDS_P1;SDS_P2;PMS_P1;PMS_P2;Temp;Humidity;BMP_temperature;BMP_pressure;BME280_temperature;BME280_humidity;BME280_pressure;Samples;Min_cycle;Max_cycle;Signal;HPM_P1;HPM_P2
2022/10/21 00:01:25;;;;;;;12.83;11.30;;;15.70;99.90;;;;;;5002227;28;20559;-84
2022/10/21 00:03:51;;;;;;;15.50;12.97;;;15.70;99.90;;;;;;5001620;28;20813;-82
2022/10/21 00:06:17;;;;;;;15.47;11.37;;;15.60;99.90;;;;;;5001279;28;20178;-83
2022/10/21 00:08:42;;;;;;;16.13;11.23;;;15.70;99.90;;;;;;5001622;28;20231;-83
2022/10/21 00:11:09;;;;;;;15.27;11.97;;;15.70;99.90;;;;;;5001562;28;20319;-84
2022/10/21 00:13:38;;;;;;;17.13;11.00;;;15.60;99.90;;;;;;5001798;28;20170;-83
2022/10/21 00:16:13;;;;;;;19.93;12.30;;;15.60;99.90;;;;;;5035708;28;20433;-82
2022/10/21 00:18:40;;;;;;;16.83;12.87;;;15.60;99.90;;;;;;4985650;28;20412;-85
2022/10/21 00:21:08;;;;;;;13.37;11.97;;;15.50;99.90;;;;;;5035027;28;20930;-81
2022/10/21 00:23:34;;;;;;;14.90;11.40;;;15.50;99.90;;;;;;5001440;28;20425;-83
2022/10/21 00:26:01;;;;;;;15.77;11.87;;;15.50;99.90;;;;;;5037456;28;20527;-83
2022/10/21 00:28:27;;;;;;;17.27;14.10;;;15.50;99.90;;;;;;5004494;28;20470;-83
2022/10/21 00:30:53;;;;;;;20.90;12.00;;;15.50;99.90;;;;;;5021143;28;20452;-84
2022/10/21 00:33:19;;;;;;;13.90;11.17;;;15.50;99.90;;;;;;5004849;28;20181;-84
2022/10/21 00:35:57;;;;;;;18.83;11.83;;;15.50;99.90;;;;;;5021162;28;20424;-83
2022/10/21 00:38:23;;;;;;;14.77;11.77;;;15.50;99.90;;;;;;5020724;28;20173;-81
2022/10/21 00:40:49;;;;;;;13.30;11.90;;;15.50;99.90;;;;;;5020661;28;20412;-81
2022/10/21 00:43:14;;;;;;;15.20;12.20;;;15.50;99.90;;;;;;5020468;28;20546;-83
2022/10/21 00:45:42;;;;;;;14.47;11.67;;;15.50;99.90;;;;;;5016674;28;20217;-83
2022/10/21 00:48:20;;;;;;;13.50;12.10;;;15.40;99.90;;;;;;5029922;28;20178;-84
2022/10/21 00:50:53;;;;;;;17.00;11.73;;;15.50;99.90;;;;;;5055302;28;20444;-83
2022/10/21 00:53:21;;;;;;;13.40;11.13;;;15.40;99.90;;;;;;5037191;28;20980;-82
2022/10/21 00:55:54;;;;;;;16.00;12.17;;;15.40;99.90;;;;;;5053311;28;20489;-83
2022/10/21 00:58:23;;;;;;;15.40;11.87;;;15.40;99.90;;;;;;5036956;28;20416;-83
2022/10/21 01:00:53;;;;;;;14.70;12.10;;;15.40;99.90;;;;;;5053265;28;20409;-86
2022/10/21 01:03:19;;;;;;;14.50;10.47;;;15.40;99.90;;;;;;5036992;28;20466;-84
2022/10/21 01:05:46;;;;;;;15.57;11.57;;;15.40;99.90;;;;;;5053325;28;20440;-84
2022/10/21 01:08:12;;;;;;;15.90;12.20;;;15.40;99.90;;;;;;5055050;28;20503;-83
2022/10/21 01:10:38;;;;;;;17.43;11.53;;;15.40;99.90;;;;;;5028333;28;20547;-84
2022/10/21 01:13:14;;;;;;;14.80;11.00;;;15.40;99.90;;;;;;5052546;28;20592;-83
2022/10/21 01:15:46;;;;;;;14.20;11.10;;;15.40;99.90;;;;;;5053247;28;20434;-83
2022/10/21 01:18:21;;;;;;;13.73;11.27;;;15.40;99.90;;;;;;5036079;28;20401;-83
2022/10/21 01:20:53;;;;;;;13.77;10.73;;;15.30;99.90;;;;;;5054697;28;20415;-85
2022/10/21 01:23:57;;;;;;;15.00;11.00;;;15.30;99.90;;;;;;5036009;28;20439;-84
2022/10/21 01:27:10;;;;;;;14.17;11.50;;;15.30;99.90;;;;;;5033455;28;20478;-83
2022/10/21 01:29:42;;;;;;;13.30;10.80;;;15.30;99.90;;;;;;5053932;28;21040;-82
2022/10/21 01:32:08;;;;;;;14.40;11.50;;;15.30;99.90;;;;;;5036222;28;20906;-83
2022/10/21 01:35:17;;;;;;;15.33;11.53;;;15.30;99.90;;;;;;5054197;28;20436;-83
2022/10/21 01:37:49;;;;;;;15.77;10.33;;;15.30;99.90;;;;;;5023043;28;20201;-84
2022/10/21 01:40:30;;;;;;;18.13;11.00;;;15.20;99.90;;;;;;5053389;28;20511;-84
2022/10/21 01:43:01;;;;;;;13.70;10.97;;;15.10;99.90;;;;;;5035892;28;20507;-83
2022/10/21 01:45:40;;;;;;;13.63;10.20;;;15.20;99.90;;;;;;5019176;28;20493;-83
2022/10/21 01:48:15;;;;;;;20.77;11.67;;;15.20;99.90;;;;;;5035862;28;20420;-83
2022/10/21 01:50:45;;;;;;;14.33;10.13;;;15.20;99.90;;;;;;5035514;28;20483;-83
2022/10/21 01:53:15;;;;;;;14.20;10.10;;;15.20;99.90;;;;;;5036151;28;20424;-82
2022/10/21 01:55:44;;;;;;;13.13;10.17;;;15.10;99.90;;;;;;5035083;28;20527;-85
2022/10/21 01:58:19;;;;;;;16.00;10.80;;;15.10;99.90;;;;;;5003333;28;20409;-84
2022/10/21 02:00:46;;;;;;;17.30;10.00;;;15.10;99.90;;;;;;5018998;28;20415;-83
2022/10/21 02:03:17;;;;;;;11.60;9.30;;;15.10;99.90;;;;;;5019151;28;21134;-84
2022/10/21 02:05:43;;;;;;;10.97;9.00;;;15.10;99.90;;;;;;5036265;28;20432;-85
2022/10/21 02:08:09;;;;;;;11.30;10.10;;;15.00;99.90;;;;;;5035416;28;20637;-85
2022/10/21 02:10:40;;;;;;;12.27;9.67;;;14.90;99.90;;;;;;5035700;28;20294;-85
2022/10/21 02:13:11;;;;;;;9.37;7.10;;;15.00;99.90;;;;;;5018596;28;20170;-83
2022/10/21 02:15:40;;;;;;;12.40;8.23;;;14.90;99.90;;;;;;5035477;28;20463;-84
2022/10/21 02:18:08;;;;;;;8.27;6.73;;;14.90;99.90;;;;;;5018068;28;20511;-84
2022/10/21 02:20:40;;;;;;;9.83;7.70;;;15.00;99.90;;;;;;5035462;28;20420;-81
2022/10/21 02:23:10;;;;;;;11.90;7.33;;;15.00;99.90;;;;;;5053178;28;20508;-85
2022/10/21 02:25:39;;;;;;;9.13;7.57;;;15.00;99.90;;;;;;5002612;28;20486;-84
2022/10/21 02:28:06;;;;;;;7.80;6.10;;;15.00;99.90;;;;;;5002631;28;20420;-84
2022/10/21 02:30:47;;;;;;;8.17;7.33;;;15.00;99.90;;;;;;5035594;28;20456;-85
2022/10/21 02:33:22;;;;;;;8.40;5.60;;;15.10;99.90;;;;;;5018886;28;20421;-84
2022/10/21 02:36:09;;;;;;;7.97;6.00;;;15.10;99.90;;;;;;5035006;28;20925;-84
2022/10/21 02:38:48;;;;;;;7.13;5.50;;;15.10;99.90;;;;;;5035220;28;20397;-83
2022/10/21 02:41:19;;;;;;;7.00;4.73;;;15.10;99.90;;;;;;5018528;28;20980;-84
2022/10/21 02:44:01;;;;;;;6.93;4.70;;;15.10;99.90;;;;;;5019178;28;20422;-83
2022/10/21 02:46:35;;;;;;;6.30;5.10;;;15.20;99.90;;;;;;5035789;28;20429;-85
2022/10/21 02:49:01;;;;;;;5.57;4.97;;;15.20;99.90;;;;;;5035169;28;20403;-84
2022/10/21 02:51:27;;;;;;;7.57;5.03;;;15.20;99.90;;;;;;5018825;28;20436;-82
2022/10/21 02:53:53;;;;;;;5.70;4.87;;;15.20;99.90;;;;;;5053317;28;20186;-83
2022/10/21 02:56:19;;;;;;;7.07;4.10;;;15.20;99.90;;;;;;5018476;28;20186;-84
2022/10/21 02:58:44;;;;;;;6.40;5.00;;;15.30;99.90;;;;;;5018353;28;20412;-86
2022/10/21 03:01:10;;;;;;;5.40;4.47;;;15.30;99.90;;;;;;5018683;28;20185;-83
2022/10/21 03:03:35;;;;;;;5.33;3.97;;;15.30;99.90;;;;;;5017512;28;20193;-83
2022/10/21 03:06:01;;;;;;;5.27;4.23;;;15.30;99.90;;;;;;4998618;28;20209;-86
2022/10/21 03:08:26;;;;;;;6.83;4.67;;;15.20;99.90;;;;;;5032047;28;20181;-86
2022/10/21 03:10:52;;;;;;;7.30;4.53;;;15.20;99.90;;;;;;5017962;28;20263;-85
2022/10/21 03:13:18;;;;;;;9.30;4.40;;;15.20;99.90;;;;;;4985335;28;20554;-83
2022/10/21 03:15:43;;;;;;;4.30;3.90;;;15.20;99.90;;;;;;5002731;28;20194;-84
2022/10/21 03:18:09;;;;;;;5.17;4.53;;;15.20;99.90;;;;;;5051725;28;20180;-84
2022/10/21 03:20:35;;;;;;;4.20;3.73;;;15.20;99.90;;;;;;5006786;28;20596;-83
2022/10/21 03:23:00;;;;;;;5.80;5.20;;;15.20;99.90;;;;;;4983128;28;20221;-82
2022/10/21 03:25:26;;;;;;;4.60;3.90;;;15.20;99.90;;;;;;5014808;28;20279;-85
2022/10/21 03:27:52;;;;;;;4.13;3.73;;;15.20;99.90;;;;;;4982315;28;20179;-84
2022/10/21 03:30:18;;;;;;;5.83;3.93;;;15.20;99.90;;;;;;5014702;28;20202;-84
2022/10/21 03:32:43;;;;;;;5.93;4.37;;;15.20;99.90;;;;;;4982764;28;20421;-85
2022/10/21 03:35:09;;;;;;;5.80;4.43;;;15.20;99.90;;;;;;4998508;28;20195;-84
2022/10/21 03:37:34;;;;;;;5.50;4.30;;;15.20;99.90;;;;;;5015294;28;20309;-82
2022/10/21 03:40:00;;;;;;;6.23;5.00;;;15.20;99.90;;;;;;5015649;28;20856;-82
2022/10/21 03:42:27;;;;;;;6.60;4.60;;;15.20;99.90;;;;;;5000204;28;20197;-84
2022/10/21 03:44:53;;;;;;;4.87;4.30;;;15.20;99.90;;;;;;5007548;28;20263;-83
2022/10/21 03:47:18;;;;;;;8.83;5.00;;;15.30;99.90;;;;;;5018219;28;20420;-83
2022/10/21 03:49:44;;;;;;;5.23;4.23;;;15.20;99.90;;;;;;4985933;28;20297;-84
2022/10/21 03:52:10;;;;;;;5.73;4.53;;;15.30;99.90;;;;;;5034319;28;20174;-82
2022/10/21 03:54:35;;;;;;;5.97;4.90;;;15.30;99.90;;;;;;5034493;28;20200;-82
2022/10/21 03:57:01;;;;;;;8.77;4.30;;;15.20;99.90;;;;;;5055122;28;20169;-82
2022/10/21 03:59:27;;;;;;;6.30;4.47;;;15.30;99.90;;;;;;5021430;28;20212;-83
2022/10/21 04:01:52;;;;;;;5.87;4.70;;;15.20;99.90;;;;;;5021448;28;20189;-84
2022/10/21 04:04:18;;;;;;;8.50;4.17;;;15.30;99.90;;;;;;4988748;28;20206;-85
2022/10/21 04:06:43;;;;;;;4.20;3.73;;;15.30;99.90;;;;;;5021266;28;20186;-84
2022/10/21 04:09:09;;;;;;;6.83;3.90;;;15.30;99.90;;;;;;4989033;28;20271;-82
2022/10/21 04:11:35;;;;;;;7.63;4.00;;;15.30;99.90;;;;;;5038117;28;20185;-83
2022/10/21 04:14:00;;;;;;;7.27;4.07;;;15.30;99.90;;;;;;4988435;28;20273;-85
2022/10/21 04:16:26;;;;;;;8.57;3.97;;;15.30;99.90;;;;;;5037999;28;20551;-82
2022/10/21 04:18:52;;;;;;;4.33;3.93;;;15.40;99.90;;;;;;5021200;28;20174;-83
2022/10/21 04:21:17;;;;;;;4.23;3.53;;;15.40;99.90;;;;;;5055372;28;20756;-83
2022/10/21 04:23:43;;;;;;;6.47;4.37;;;15.40;99.90;;;;;;5037704;28;20198;-84
2022/10/21 04:26:09;;;;;;;6.93;3.77;;;15.40;99.90;;;;;;5021480;28;20230;-83
2022/10/21 04:28:35;;;;;;;6.70;4.17;;;15.40;99.90;;;;;;5004790;28;20178;-82
2022/10/21 04:31:01;;;;;;;4.50;3.50;;;15.40;99.90;;;;;;5037612;28;20926;-83
2022/10/21 04:33:27;;;;;;;5.13;3.80;;;15.40;99.90;;;;;;5054358;28;20499;-83
2022/10/21 04:35:54;;;;;;;6.50;4.40;;;15.40;99.90;;;;;;5054316;28;20467;-83
2022/10/21 04:38:20;;;;;;;4.43;3.70;;;15.50;99.90;;;;;;5054563;28;20466;-84
2022/10/21 04:40:46;;;;;;;5.23;3.40;;;15.50;99.90;;;;;;5021305;28;20433;-82
2022/10/21 04:43:12;;;;;;;6.03;4.27;;;15.50;99.90;;;;;;5019837;28;20431;-83
2022/10/21 04:45:39;;;;;;;3.90;3.50;;;15.50;99.90;;;;;;5056095;28;20213;-83
2022/10/21 04:48:05;;;;;;;4.63;3.47;;;15.50;99.90;;;;;;5023764;28;20185;-83
2022/10/21 04:50:33;;;;;;;5.20;3.60;;;15.50;99.90;;;;;;5050944;28;20547;-85
2022/10/21 04:52:59;;;;;;;4.70;4.10;;;15.50;99.90;;;;;;5015771;28;20425;-84
2022/10/21 04:55:28;;;;;;;5.87;3.53;;;15.40;99.90;;;;;;5003255;28;20453;-82
2022/10/21 04:57:53;;;;;;;4.20;3.80;;;15.40;99.90;;;;;;5015807;28;20420;-84
2022/10/21 05:00:19;;;;;;;7.47;4.00;;;15.50;99.90;;;;;;5002601;28;20530;-83
2022/10/21 05:02:45;;;;;;;5.20;3.43;;;15.50;99.90;;;;;;5017756;28;20195;-84
2022/10/21 05:05:10;;;;;;;8.53;3.93;;;15.50;99.90;;;;;;4984894;28;20210;-83
2022/10/21 05:07:36;;;;;;;5.00;3.37;;;15.50;99.90;;;;;;4984093;28;20182;-84
2022/10/21 05:10:02;;;;;;;4.00;3.27;;;15.50;99.90;;;;;;4976530;28;20213;-83
2022/10/21 05:12:27;;;;;;;4.60;3.23;;;15.50;99.90;;;;;;5037233;28;20300;-84
2022/10/21 05:14:53;;;;;;;3.90;3.33;;;15.50;99.90;;;;;;5019683;28;20209;-84
2022/10/21 05:17:18;;;;;;;5.43;3.57;;;15.50;99.90;;;;;;5020718;28;20213;-83
2022/10/21 05:19:44;;;;;;;5.83;3.83;;;15.40;99.90;;;;;;5019498;28;20198;-85
2022/10/21 05:22:10;;;;;;;3.67;3.27;;;15.40;99.90;;;;;;5019911;28;20222;-85
2022/10/21 05:24:36;;;;;;;3.50;3.20;;;15.40;99.90;;;;;;5019841;28;20277;-85
2022/10/21 05:27:02;;;;;;;5.23;3.70;;;15.40;99.90;;;;;;5019925;28;20651;-85
2022/10/21 05:29:27;;;;;;;5.73;3.33;;;15.40;99.90;;;;;;5020241;28;20674;-84
2022/10/21 05:31:53;;;;;;;7.00;3.87;;;15.40;99.90;;;;;;5022706;28;20195;-82
2022/10/21 05:34:19;;;;;;;4.97;3.20;;;15.30;99.90;;;;;;5006347;28;20210;-83
2022/10/21 05:36:47;;;;;;;5.97;3.63;;;15.40;99.90;;;;;;5034040;28;20177;-86
2022/10/21 05:39:13;;;;;;;5.03;3.50;;;15.40;99.90;;;;;;5000661;28;20189;-83
2022/10/21 05:41:39;;;;;;;3.93;3.50;;;15.40;99.90;;;;;;4984275;28;20433;-84
2022/10/21 05:44:04;;;;;;;4.77;2.93;;;15.40;99.90;;;;;;5028264;28;20408;-84
2022/10/21 05:46:30;;;;;;;5.47;3.33;;;15.40;99.90;;;;;;5053583;28;20702;-84
2022/10/21 05:48:56;;;;;;;3.40;2.83;;;15.40;99.90;;;;;;5002257;28;20195;-82
2022/10/21 05:51:25;;;;;;;4.30;3.70;;;15.40;99.90;;;;;;5014764;28;20840;-83
2022/10/21 05:53:52;;;;;;;4.07;3.47;;;15.40;99.90;;;;;;5024980;28;20208;-83
2022/10/21 05:56:17;;;;;;;4.93;3.60;;;15.40;99.90;;;;;;5027389;28;20424;-85
2022/10/21 05:58:43;;;;;;;4.03;3.13;;;15.30;99.90;;;;;;5049810;28;20473;-84
2022/10/21 06:01:09;;;;;;;6.13;3.50;;;15.30;99.90;;;;;;4999755;28;20221;-84
2022/10/21 06:03:34;;;;;;;3.47;3.17;;;15.30;99.90;;;;;;5032716;28;20170;-84
2022/10/21 06:06:03;;;;;;;3.43;3.13;;;15.30;99.90;;;;;;4984096;28;20894;-83
2022/10/21 06:08:31;;;;;;;5.07;2.97;;;15.30;99.90;;;;;;5014726;28;20575;-84
2022/10/21 06:11:17;;;;;;;3.60;3.10;;;15.30;99.90;;;;;;5053696;28;20451;-84
2022/10/21 06:13:43;;;;;;;6.83;3.77;;;15.30;99.90;;;;;;5021364;28;20419;-82
2022/10/21 06:16:10;;;;;;;4.00;3.13;;;15.20;99.90;;;;;;5036704;28;20424;-85
2022/10/21 06:18:36;;;;;;;4.13;3.30;;;15.20;99.90;;;;;;5034335;28;20949;-86
2022/10/21 06:21:02;;;;;;;4.07;3.10;;;15.10;99.90;;;;;;5054034;28;20432;-85
2022/10/21 06:23:28;;;;;;;4.73;2.90;;;15.10;99.90;;;;;;5020024;28;20432;-84
2022/10/21 06:26:14;;;;;;;7.80;3.30;;;15.10;99.90;;;;;;5052862;28;20209;-84
2022/10/21 06:28:42;;;;;;;3.50;3.20;;;15.10;99.90;;;;;;5036814;28;20177;-85
2022/10/21 06:31:11;;;;;;;4.30;3.00;;;15.10;99.90;;;;;;5036735;28;20448;-85
2022/10/21 06:33:36;;;;;;;5.40;3.50;;;15.10;99.90;;;;;;5019705;28;20456;-84
2022/10/21 06:36:02;;;;;;;3.47;3.10;;;15.10;99.90;;;;;;5019520;28;20941;-85
2022/10/21 06:38:28;;;;;;;6.30;3.40;;;15.10;99.90;;;;;;5018491;28;20182;-84
2022/10/21 06:41:02;;;;;;;4.77;3.30;;;15.10;99.90;;;;;;5036139;28;20975;-84
2022/10/21 06:43:28;;;;;;;7.60;3.13;;;15.20;99.90;;;;;;5019080;28;20188;-83
2022/10/21 06:46:01;;;;;;;3.80;2.40;;;15.20;99.90;;;;;;5036192;28;20432;-85
2022/10/21 06:48:28;;;;;;;5.70;3.80;;;15.20;99.90;;;;;;5001533;28;20425;-84
2022/10/21 06:51:06;;;;;;;4.47;3.07;;;15.20;99.90;;;;;;5015869;28;20500;-83
2022/10/21 06:53:32;;;;;;;3.20;2.90;;;15.20;99.90;;;;;;5005227;28;20420;-86
2022/10/21 06:56:04;;;;;;;5.70;2.80;;;15.20;99.90;;;;;;5019350;28;20431;-85
2022/10/21 06:58:30;;;;;;;3.10;2.67;;;15.30;99.90;;;;;;5015682;28;20416;-83
2022/10/21 07:00:56;;;;;;;3.50;3.20;;;15.30;99.90;;;;;;5008513;28;20424;-84
2022/10/21 07:03:22;;;;;;;5.37;3.40;;;15.30;99.90;;;;;;5034795;28;20450;-82
2022/10/21 07:05:47;;;;;;;8.33;3.33;;;15.30;99.90;;;;;;5018767;28;20440;-83
2022/10/21 07:08:13;;;;;;;3.03;2.50;;;15.30;99.90;;;;;;5019149;28;20528;-85
2022/10/21 07:10:43;;;;;;;5.20;2.93;;;15.40;99.90;;;;;;5002472;28;20219;-85
2022/10/21 07:13:09;;;;;;;4.13;3.00;;;15.40;99.90;;;;;;5014223;28;20608;-84
2022/10/21 07:15:35;;;;;;;5.67;3.60;;;15.40;99.90;;;;;;5019890;28;20447;-84
2022/10/21 07:18:01;;;;;;;4.53;3.37;;;15.40;99.90;;;;;;5015032;28;20516;-83
2022/10/21 07:20:26;;;;;;;4.63;3.43;;;15.50;99.90;;;;;;5016438;28;20599;-83
2022/10/21 07:22:52;;;;;;;3.40;3.10;;;15.40;99.90;;;;;;5035743;28;20234;-84
2022/10/21 07:25:18;;;;;;;3.33;2.73;;;15.40;99.90;;;;;;5002859;28;20325;-84
2022/10/21 07:27:44;;;;;;;4.30;2.90;;;15.40;99.90;;;;;;5018879;28;20191;-84
2022/10/21 07:30:10;;;;;;;4.30;2.90;;;15.40;99.90;;;;;;5003172;28;20466;-83
2022/10/21 07:32:35;;;;;;;4.07;3.10;;;15.40;99.90;;;;;;5006562;28;20198;-83
2022/10/21 07:35:01;;;;;;;4.87;3.17;;;15.50;99.90;;;;;;5009157;28;20440;-83
2022/10/21 07:37:27;;;;;;;7.07;3.70;;;15.50;99.90;;;;;;5005846;28;20201;-85
2022/10/21 07:39:53;;;;;;;5.93;3.67;;;15.50;99.90;;;;;;5039972;28;20280;-84
2022/10/21 07:42:19;;;;;;;6.23;3.40;;;15.60;99.90;;;;;;5005344;28;20669;-84
2022/10/21 07:44:44;;;;;;;7.13;4.10;;;15.50;99.90;;;;;;5024052;28;20440;-83
2022/10/21 07:47:10;;;;;;;3.23;2.93;;;15.60;99.90;;;;;;5021432;28;20648;-83
2022/10/21 07:49:35;;;;;;;3.93;3.53;;;15.60;99.90;;;;;;5003102;28;20243;-83
2022/10/21 07:52:01;;;;;;;3.47;3.17;;;15.60;99.90;;;;;;5040500;28;20185;-85
2022/10/21 07:54:27;;;;;;;4.80;3.10;;;15.70;99.90;;;;;;5016482;28;20217;-85
2022/10/21 07:56:53;;;;;;;3.77;3.37;;;15.70;99.90;;;;;;5030654;28;20220;-84
2022/10/21 07:59:19;;;;;;;8.13;3.40;;;15.70;99.90;;;;;;4999924;28;20191;-82
2022/10/21 08:01:46;;;;;;;3.73;3.33;;;15.80;99.90;;;;;;5007166;28;20204;-84
2022/10/21 08:04:18;;;;;;;4.77;3.30;;;15.90;99.90;;;;;;5023429;28;20432;-82
2022/10/21 08:06:45;;;;;;;5.83;3.87;;;15.80;99.90;;;;;;5041015;28;20428;-85
2022/10/21 08:09:11;;;;;;;5.90;3.93;;;15.90;99.90;;;;;;5059113;28;20463;-82
2022/10/21 08:11:37;;;;;;;5.20;3.93;;;15.80;99.90;;;;;;5022384;28;20475;-83
2022/10/21 08:14:06;;;;;;;5.00;3.57;;;15.90;99.90;;;;;;5037051;28;20791;-83
2022/10/21 08:16:31;;;;;;;4.40;3.43;;;15.90;99.90;;;;;;5004286;28;20185;-85
2022/10/21 08:19:02;;;;;;;4.33;3.90;;;16.00;99.90;;;;;;5037125;28;20413;-85
2022/10/21 08:21:29;;;;;;;4.10;3.70;;;16.00;99.90;;;;;;5020734;28;20603;-84
2022/10/21 08:23:56;;;;;;;9.00;3.40;;;16.00;99.90;;;;;;5020120;28;20474;-82
2022/10/21 08:26:22;;;;;;;5.23;3.23;;;16.00;99.90;;;;;;5020311;28;20417;-85
2022/10/21 08:28:47;;;;;;;7.03;4.17;;;16.10;99.90;;;;;;5020457;28;20773;-86
2022/10/21 08:31:16;;;;;;;3.60;3.30;;;16.00;99.90;;;;;;5019929;28;20214;-82
2022/10/21 08:33:42;;;;;;;5.77;3.77;;;16.00;99.90;;;;;;5021862;28;20175;-82
2022/10/21 08:36:20;;;;;;;8.70;3.67;;;16.00;99.90;;;;;;5010299;28;20429;-84
2022/10/21 08:38:46;;;;;;;8.40;4.03;;;16.00;99.90;;;;;;5027809;28;20500;-82
2022/10/21 08:41:30;;;;;;;5.27;3.90;;;16.00;99.90;;;;;;5016884;28;20910;-83
2022/10/21 08:44:34;;;;;;;8.40;3.77;;;16.00;99.90;;;;;;5034817;28;20421;-83
2022/10/21 08:47:12;;;;;;;3.73;3.33;;;16.00;99.90;;;;;;5016612;28;20891;-84
2022/10/21 08:50:04;;;;;;;6.73;3.77;;;16.10;99.90;;;;;;5001174;28;20880;-83
2022/10/21 08:52:36;;;;;;;3.80;3.23;;;16.00;99.90;;;;;;5000721;28;20505;-83
2022/10/21 08:55:05;;;;;;;4.43;3.50;;;16.10;99.90;;;;;;5034643;28;20520;-85
2022/10/21 08:57:33;;;;;;;7.60;3.83;;;16.00;99.90;;;;;;5001256;28;20428;-84
2022/10/21 08:59:59;;;;;;;4.17;3.57;;;16.00;99.90;;;;;;5017625;28;20448;-85
2022/10/21 09:02:34;;;;;;;9.17;3.77;;;16.10;99.90;;;;;;5035767;28;20421;-84
2022/10/21 09:05:48;;;;;;;7.17;4.33;;;16.10;99.90;;;;;;5001375;28;20229;-83
2022/10/21 09:08:13;;;;;;;5.80;3.90;;;16.00;99.90;;;;;;5032530;28;20432;-85
2022/10/21 09:10:45;;;;;;;6.83;4.40;;;16.00;99.90;;;;;;5035903;28;20453;-84
2022/10/21 09:13:42;;;;;;;5.17;4.00;;;16.10;99.90;;;;;;5002496;28;20181;-84
2022/10/21 09:16:18;;;;;;;17.57;4.37;;;16.00;99.90;;;;;;5018364;28;20433;-83
2022/10/21 09:19:12;;;;;;;8.83;4.70;;;16.00;99.90;;;;;;5001520;28;20416;-85
2022/10/21 09:22:11;;;;;;;7.50;4.43;;;15.90;99.90;;;;;;5001408;28;20425;-82
2022/10/21 09:24:59;;;;;;;6.43;3.90;;;15.80;99.90;;;;;;5017252;28;20452;-83
2022/10/21 09:27:25;;;;;;;6.33;3.93;;;15.80;99.90;;;;;;5001219;28;20417;-83
2022/10/21 09:30:04;;;;;;;6.80;4.03;;;15.80;99.90;;;;;;5017194;28;20457;-83
2022/10/21 09:32:40;;;;;;;5.47;4.70;;;15.80;99.90;;;;;;5000999;28;20413;-83
2022/10/21 09:35:21;;;;;;;5.30;4.03;;;15.80;99.90;;;;;;5034146;28;20968;-83
2022/10/21 09:37:54;;;;;;;5.10;3.97;;;15.70;99.90;;;;;;5017799;28;20414;-82
2022/10/21 09:40:21;;;;;;;5.17;4.30;;;15.80;99.90;;;;;;5000921;28;20413;-83
2022/10/21 09:42:49;;;;;;;5.30;4.33;;;15.70;99.90;;;;;;5017760;28;20410;-83
2022/10/21 09:45:25;;;;;;;5.47;4.47;;;15.70;99.90;;;;;;5017803;28;20444;-82
2022/10/21 09:48:15;;;;;;;7.70;3.93;;;15.70;99.90;;;;;;5018067;28;20412;-83
2022/10/21 09:50:41;;;;;;;6.30;4.23;;;15.60;99.90;;;;;;5010091;28;20523;-83
2022/10/21 09:53:16;;;;;;;6.07;4.83;;;15.70;99.90;;;;;;5016433;28;20421;-83
2022/10/21 09:55:45;;;;;;;7.60;5.10;;;15.70;99.90;;;;;;5000770;28;20539;-83
2022/10/21 09:58:37;;;;;;;6.73;4.50;;;15.70;99.90;;;;;;5016909;28;20421;-83
2022/10/21 10:01:04;;;;;;;6.63;4.47;;;15.60;99.90;;;;;;4981986;28;20930;-83
2022/10/21 10:03:42;;;;;;;6.33;4.47;;;15.60;99.90;;;;;;5034403;28;20417;-83
2022/10/21 10:06:08;;;;;;;9.07;4.77;;;15.60;99.90;;;;;;5018072;28;20524;-83
2022/10/21 10:08:43;;;;;;;5.77;4.97;;;15.70;99.90;;;;;;5000779;28;20453;-83
2022/10/21 10:11:08;;;;;;;7.23;4.33;;;15.70;99.90;;;;;;5017458;28;20309;-82
2022/10/21 10:13:53;;;;;;;5.00;4.20;;;15.70;99.90;;;;;;5034643;28;20488;-85
2022/10/21 10:16:29;;;;;;;5.73;4.37;;;15.70;99.90;;;;;;5016888;28;20285;-82
2022/10/21 10:19:17;;;;;;;5.87;4.40;;;15.70;99.90;;;;;;5033373;28;20759;-83
2022/10/21 10:21:44;;;;;;;4.80;4.40;;;15.70;99.90;;;;;;5011301;28;20428;-83
2022/10/21 10:24:19;;;;;;;3.87;3.57;;;15.80;99.90;;;;;;5015798;28;20966;-82
2022/10/21 10:26:45;;;;;;;9.70;3.80;;;15.80;99.90;;;;;;4999963;28;20421;-81
2022/10/21 10:29:14;;;;;;;6.83;4.40;;;15.80;99.90;;;;;;5016535;28;20432;-82
2022/10/21 10:31:52;;;;;;;5.77;3.60;;;15.80;99.90;;;;;;5016445;28;20467;-82
2022/10/21 10:34:27;;;;;;;4.97;3.80;;;15.80;99.90;;;;;;5031813;28;20433;-82
2022/10/21 10:37:14;;;;;;;4.57;3.20;;;15.80;99.90;;;;;;5034309;28;20924;-82
2022/10/21 10:39:41;;;;;;;3.23;2.90;;;15.80;99.90;;;;;;5015897;28;20428;-83
2022/10/21 10:42:07;;;;;;;5.20;3.53;;;15.80;99.90;;;;;;5000227;28;20421;-82
2022/10/21 10:44:40;;;;;;;3.40;2.80;;;15.90;99.90;;;;;;5001884;28;20464;-84
2022/10/21 10:47:16;;;;;;;4.40;3.27;;;15.80;99.90;;;;;;5016462;28;20558;-85
2022/10/21 10:49:42;;;;;;;2.97;2.70;;;15.80;99.90;;;;;;5016188;28;20456;-83
2022/10/21 10:52:15;;;;;;;4.60;3.43;;;15.80;99.90;;;;;;5016531;28;21090;-83
2022/10/21 10:54:42;;;;;;;4.07;2.93;;;15.80;99.90;;;;;;5015976;28;20425;-83
2022/10/21 10:57:25;;;;;;;4.40;3.37;;;15.80;99.90;;;;;;4999925;28;20409;-83
2022/10/21 11:00:05;;;;;;;3.93;2.60;;;15.90;99.90;;;;;;5002760;28;21113;-83
2022/10/21 11:02:54;;;;;;;5.27;3.30;;;15.80;99.90;;;;;;5042066;28;20427;-82
2022/10/21 11:05:43;;;;;;;3.20;2.80;;;15.80;99.90;;;;;;5035627;28;20481;-85
2022/10/21 11:08:27;;;;;;;4.07;3.60;;;15.80;99.90;;;;;;5040362;28;20992;-83
2022/10/21 11:11:01;;;;;;;5.80;2.83;;;15.80;99.90;;;;;;5010083;28;20460;-85
2022/10/21 11:13:27;;;;;;;5.30;3.10;;;15.90;99.90;;;;;;5012472;28;20500;-82
2022/10/21 11:16:10;;;;;;;3.70;2.97;;;15.90;99.90;;;;;;5023657;28;20730;-83
2022/10/21 11:18:37;;;;;;;3.27;2.90;;;16.00;99.90;;;;;;5018291;28;20181;-84
2022/10/21 11:21:18;;;;;;;3.40;2.50;;;15.90;99.90;;;;;;5007388;28;20910;-83
2022/10/21 11:24:04;;;;;;;3.20;2.53;;;16.00;99.90;;;;;;5023484;28;20833;-83
2022/10/21 11:26:41;;;;;;;8.37;3.20;;;16.00;99.90;;;;;;5038104;28;20456;-82
2022/10/21 11:29:24;;;;;;;3.53;2.90;;;16.00;99.90;;;;;;5003545;28;20555;-84
2022/10/21 11:32:07;;;;;;;2.80;2.50;;;16.00;99.90;;;;;;5049214;28;20416;-82
2022/10/21 11:34:58;;;;;;;3.07;2.23;;;16.00;99.90;;;;;;5039547;28;20980;-82
2022/10/21 11:37:23;;;;;;;3.50;2.20;;;16.00;99.90;;;;;;5022687;28;20806;-83
2022/10/21 11:40:06;;;;;;;2.87;2.07;;;16.00;99.90;;;;;;5039577;28;20487;-84
2022/10/21 11:42:40;;;;;;;4.13;2.10;;;16.10;99.90;;;;;;5039578;28;20681;-83
2022/10/21 11:45:38;;;;;;;3.43;2.20;;;16.10;99.90;;;;;;5020167;28;20789;-82
2022/10/21 11:48:17;;;;;;;5.30;2.70;;;16.00;99.90;;;;;;5054953;28;20412;-85
2022/10/21 11:51:25;;;;;;;5.00;2.40;;;16.00;99.90;;;;;;5038664;28;20791;-85
2022/10/21 11:54:12;;;;;;;2.47;2.00;;;16.00;99.90;;;;;;5033399;28;20426;-84
2022/10/21 11:56:45;;;;;;;1.87;1.77;;;16.00;99.90;;;;;;5039438;28;20404;-84
2022/10/21 12:00:09;;;;;;;2.07;1.87;;;16.00;99.90;;;;;;5038601;28;20422;-83
2022/10/21 12:02:37;;;;;;;3.97;1.83;;;16.00;99.90;;;;;;4982497;28;20436;-81
2022/10/21 12:05:18;;;;;;;2.80;1.93;;;16.00;99.90;;;;;;5031609;28;20955;-83
2022/10/21 12:07:56;;;;;;;2.27;1.43;;;16.00;99.90;;;;;;5022778;28;20423;-83
2022/10/21 12:10:37;;;;;;;3.83;2.00;;;16.00;99.90;;;;;;5022723;28;20458;-83
2022/10/21 12:13:14;;;;;;;2.33;1.80;;;16.00;99.90;;;;;;5022727;28;20404;-84
2022/10/21 12:15:44;;;;;;;4.10;1.87;;;16.10;99.90;;;;;;5022284;28;20459;-83
2022/10/21 12:18:15;;;;;;;2.87;2.03;;;16.10;99.90;;;;;;5056489;28;20451;-83
2022/10/21 12:20:42;;;;;;;4.37;2.70;;;16.10;99.90;;;;;;5022195;28;20413;-83
2022/10/21 12:23:12;;;;;;;2.57;1.87;;;16.20;99.90;;;;;;5038592;28;20427;-83
2022/10/21 12:25:57;;;;;;;2.10;1.90;;;16.20;99.90;;;;;;5021400;28;20948;-83
2022/10/21 12:28:39;;;;;;;2.30;1.57;;;16.30;99.90;;;;;;5021392;28;20416;-81
2022/10/21 12:31:38;;;;;;;2.97;1.70;;;16.30;99.90;;;;;;5021650;28;20460;-83
2022/10/21 12:34:08;;;;;;;4.73;2.00;;;16.40;99.90;;;;;;5037626;28;21103;-83
2022/10/21 12:36:47;;;;;;;5.40;2.80;;;16.40;99.90;;;;;;5005995;28;20419;-83
2022/10/21 12:39:34;;;;;;;2.50;1.87;;;16.50;99.90;;;;;;5037620;28;20416;-82
2022/10/21 12:42:18;;;;;;;2.63;1.77;;;16.60;99.90;;;;;;5038105;28;20420;-84
2022/10/21 12:44:46;;;;;;;3.70;1.70;;;16.60;99.90;;;;;;5011464;28;20436;-83
2022/10/21 12:47:35;;;;;;;2.43;2.00;;;16.60;99.90;;;;;;5004424;28;20486;-83
2022/10/21 12:50:13;;;;;;;2.53;2.03;;;16.80;99.90;;;;;;5001013;28;20464;-82
2022/10/21 12:52:40;;;;;;;1.70;1.60;;;16.90;99.90;;;;;;5043911;28;20416;-84
2022/10/21 12:55:20;;;;;;;3.43;1.90;;;17.00;99.90;;;;;;5035660;28;20861;-82
2022/10/21 12:57:55;;;;;;;3.20;2.30;;;17.20;99.90;;;;;;5019783;28;20482;-82
2022/10/21 13:00:26;;;;;;;3.60;1.90;;;17.20;99.90;;;;;;5035922;28;20435;-82
2022/10/21 13:02:56;;;;;;;2.27;1.87;;;17.30;99.90;;;;;;5020353;28;20462;-83
2022/10/21 13:05:45;;;;;;;4.00;2.20;;;17.30;99.90;;;;;;5036574;28;20440;-83